Terminal Aerodrome Forecast
Issued by NWS North Platte, NE

Home | Current Version | Previous Version | Graphics & Text | Print | Product List | Glossary On
Versions: 1 2 3 4 5 6 7 8 9 10 11 12 13 14
808
FTUS43 KLBF 050520
TAFVTN
TAF
KVTN 050520Z 0506/0606 24006KT P6SM SCT050 BKN090
     FM051500 30014G19KT P6SM SCT025 BKN035
     FM052200 29009KT P6SM SCT250=

USA.gov is the U.S. government's official web portal to all federal, state and local government web resources and services.